createdAt,value
2018-05-17T00:02:20.013Z,18.37
2018-05-17T00:07:11.330Z,18.29
2018-05-17T00:12:02.776Z,18.24
2018-05-17T00:16:54.121Z,18.19
2018-05-17T00:21:46.129Z,18.16
2018-05-17T00:26:37.444Z,18.14
2018-05-17T00:31:28.721Z,18.12
2018-05-17T00:36:20.001Z,18.06
2018-05-17T00:41:11.254Z,18.02
2018-05-17T00:46:02.541Z,17.99
2018-05-17T00:50:53.822Z,17.95
2018-05-17T00:55:45.093Z,17.92
2018-05-17T01:00:37.192Z,17.83
2018-05-17T01:05:28.504Z,17.78
2018-05-17T01:10:19.802Z,17.74
2018-05-17T01:15:11.066Z,17.74
2018-05-17T01:20:02.427Z,17.74
2018-05-17T01:24:53.629Z,17.66
2018-05-17T01:29:44.876Z,17.55
2018-05-17T01:34:36.145Z,17.44
2018-05-17T01:39:28.240Z,17.33
2018-05-17T01:44:19.558Z,17.27
2018-05-17T01:49:10.804Z,17.21
2018-05-17T01:54:02.124Z,17.14
2018-05-17T01:58:53.368Z,17.08
2018-05-17T02:03:44.614Z,16.99
2018-05-17T02:08:35.903Z,16.92
2018-05-17T02:13:27.191Z,16.84
2018-05-17T02:18:19.274Z,16.76
2018-05-17T02:23:10.525Z,16.67
2018-05-17T02:28:01.769Z,16.60
2018-05-17T02:32:53.048Z,16.57
2018-05-17T02:37:44.425Z,16.47
2018-05-17T02:42:35.774Z,16.40
2018-05-17T02:47:27.792Z,16.31
2018-05-17T02:52:19.116Z,16.26
2018-05-17T02:57:10.336Z,16.27
2018-05-17T03:02:01.546Z,16.22
2018-05-17T03:06:52.817Z,16.16
2018-05-17T03:11:44.131Z,16.08
2018-05-17T03:16:35.523Z,16.04
2018-05-17T03:21:26.791Z,16.01
2018-05-17T03:26:18.053Z,15.94
2018-05-17T03:31:09.335Z,15.91
2018-05-17T03:36:00.634Z,15.86
2018-05-17T03:40:51.902Z,15.83
2018-05-17T03:45:43.152Z,15.76
2018-05-17T03:50:34.386Z,15.72
2018-05-17T03:55:25.673Z,15.72
2018-05-17T04:00:16.920Z,15.70
2018-05-17T04:05:26.634Z,15.70
2018-05-17T04:10:18.685Z,15.64
2018-05-17T04:15:10.685Z,15.62
2018-05-17T04:20:01.953Z,15.55
2018-05-17T04:24:54.045Z,15.53
2018-05-17T04:29:45.329Z,15.51
2018-05-17T04:34:37.374Z,15.53
2018-05-17T04:39:29.454Z,15.58
2018-05-17T04:44:20.732Z,15.65
2018-05-17T04:49:12.817Z,15.72
2018-05-17T04:54:04.153Z,15.74
2018-05-17T04:58:55.387Z,15.80
2018-05-17T05:03:46.661Z,15.86
2018-05-17T05:08:38.011Z,15.95
2018-05-17T05:13:30.021Z,16.02
2018-05-17T05:18:21.284Z,16.11
2018-05-17T05:23:13.369Z,16.20
2018-05-17T05:28:04.684Z,16.25
2018-05-17T05:32:55.925Z,16.30
2018-05-17T05:37:47.181Z,16.35
2018-05-17T05:42:38.456Z,16.36
2018-05-17T05:47:30.527Z,16.38
2018-05-17T05:52:21.825Z,16.39
2018-05-17T05:57:13.881Z,16.44
2018-05-17T06:02:05.157Z,16.51
2018-05-17T06:06:56.509Z,16.57
2018-05-17T06:11:47.793Z,16.65
2018-05-17T06:16:39.116Z,16.71
2018-05-17T06:21:30.348Z,16.77
2018-05-17T06:26:21.640Z,16.84
2018-05-17T06:31:13.602Z,16.91
2018-05-17T06:36:04.978Z,16.98
2018-05-17T06:40:56.256Z,17.08
2018-05-17T06:45:48.364Z,17.14
2018-05-17T06:50:39.711Z,17.19
2018-05-17T06:55:30.988Z,17.25
2018-05-17T07:00:22.318Z,17.37
2018-05-17T07:05:13.612Z,17.57
2018-05-17T07:10:05.598Z,18.20
2018-05-17T07:14:56.875Z,19.30
2018-05-17T07:19:48.165Z,20.29
2018-05-17T07:24:39.529Z,21.07
2018-05-17T07:29:30.966Z,21.76
2018-05-17T07:34:23.152Z,22.27
2018-05-17T07:39:14.589Z,22.77
2018-05-17T07:44:05.793Z,23.51
2018-05-17T07:48:57.829Z,24.10
2018-05-17T07:53:49.870Z,24.52
2018-05-17T07:58:41.909Z,24.82
2018-05-17T08:03:33.156Z,24.92
2018-05-17T08:08:25.144Z,24.94
2018-05-17T08:13:16.450Z,24.98
2018-05-17T08:18:07.711Z,24.42
2018-05-17T08:22:59.067Z,24.37
2018-05-17T08:27:50.316Z,24.62
2018-05-17T08:32:42.310Z,24.23
2018-05-17T08:37:33.710Z,23.73
2018-05-17T08:42:24.999Z,23.29
2018-05-17T08:47:16.228Z,22.57
2018-05-17T08:52:07.517Z,22.40
2018-05-17T08:56:58.869Z,22.76
2018-05-17T09:01:50.125Z,23.31
2018-05-17T09:06:42.228Z,23.55
2018-05-17T09:11:33.506Z,23.62
2018-05-17T09:16:25.472Z,23.99
2018-05-17T09:21:17.427Z,23.83
2018-05-17T09:26:08.645Z,23.05
2018-05-17T09:31:07.015Z,22.55
2018-05-17T09:35:59.017Z,22.28
2018-05-17T09:40:50.321Z,22.01
2018-05-17T09:45:41.661Z,22.14
2018-05-17T09:50:32.946Z,22.02
2018-05-17T09:55:24.342Z,22.48
2018-05-17T10:00:21.598Z,23.14
2018-05-17T10:05:12.853Z,23.34
2018-05-17T10:10:04.134Z,23.61
2018-05-17T10:14:55.378Z,23.95
2018-05-17T10:19:46.621Z,24.24
2018-05-17T10:24:37.922Z,24.29
2018-05-17T10:29:29.266Z,23.94
2018-05-17T10:34:20.486Z,24.25
2018-05-17T10:39:11.728Z,24.50
2018-05-17T10:44:03.101Z,24.85
2018-05-17T10:48:54.426Z,24.77
2018-05-17T10:53:45.642Z,24.90
2018-05-17T10:58:36.951Z,24.99
2018-05-17T11:03:28.170Z,24.58
2018-05-17T11:08:19.426Z,24.81
2018-05-17T11:13:10.654Z,24.94
2018-05-17T11:18:01.950Z,25.34
2018-05-17T11:22:53.201Z,25.56
2018-05-17T11:27:45.197Z,25.52
2018-05-17T11:32:37.170Z,25.62
2018-05-17T11:37:28.422Z,25.63
2018-05-17T11:42:19.778Z,25.62
2018-05-17T11:47:11.077Z,25.55
2018-05-17T11:52:02.430Z,25.87
2018-05-17T11:56:53.739Z,26.20
2018-05-17T12:01:45.018Z,25.99
2018-05-17T12:06:36.297Z,25.88
2018-05-17T12:11:27.548Z,26.28
2018-05-17T12:16:18.847Z,26.41
2018-05-17T12:21:10.045Z,26.37
2018-05-17T12:26:01.355Z,26.34
2018-05-17T12:30:52.652Z,26.14
2018-05-17T12:35:43.968Z,26.04
2018-05-17T12:40:35.232Z,25.99
2018-05-17T12:45:27.306Z,25.70
2018-05-17T12:50:25.538Z,25.60
2018-05-17T12:55:16.845Z,25.76
2018-05-17T13:00:08.106Z,25.80
2018-05-17T13:04:59.455Z,25.92
2018-05-17T13:09:51.486Z,26.08
2018-05-17T13:14:42.754Z,25.91
2018-05-17T13:19:33.989Z,26.05
2018-05-17T13:24:25.252Z,25.79
2018-05-17T13:29:16.491Z,25.60
2018-05-17T13:34:07.809Z,25.82
2018-05-17T13:38:59.101Z,26.00
2018-05-17T13:43:50.370Z,26.24
2018-05-17T13:48:41.617Z,26.37
2018-05-17T13:53:32.848Z,26.48
2018-05-17T13:58:24.147Z,26.56
2018-05-17T14:03:22.368Z,26.54
2018-05-17T14:08:14.377Z,26.42
2018-05-17T14:13:05.687Z,26.52
2018-05-17T14:17:57.217Z,26.73
2018-05-17T14:22:48.512Z,26.65
2018-05-17T14:27:40.554Z,26.64
2018-05-17T14:32:33.993Z,26.71
2018-05-17T14:37:25.333Z,26.87
2018-05-17T14:42:19.694Z,27.07
2018-05-17T14:47:13.982Z,27.07
2018-05-17T14:52:05.298Z,27.07
2018-05-17T14:56:57.307Z,26.98
2018-05-17T15:01:48.662Z,26.92
2018-05-17T15:06:39.997Z,26.71
2018-05-17T15:11:31.258Z,26.73
2018-05-17T15:16:23.348Z,26.63
2018-05-17T15:21:14.695Z,26.70
2018-05-17T15:26:06.721Z,26.74
2018-05-17T15:30:59.405Z,26.86
2018-05-17T15:35:50.644Z,26.88
2018-05-17T15:40:41.936Z,26.90
2018-05-17T15:45:33.192Z,26.83
2018-05-17T15:50:24.529Z,26.69
2018-05-17T15:55:15.966Z,26.62
2018-05-17T16:00:07.505Z,26.60
2018-05-17T16:04:58.816Z,26.54
2018-05-17T16:09:50.116Z,26.43
2018-05-17T16:14:41.417Z,26.15
2018-05-17T16:19:33.430Z,25.93
2018-05-17T16:24:24.764Z,26.01
2018-05-17T16:29:16.108Z,26.04
2018-05-17T16:34:07.578Z,25.97
2018-05-17T16:38:58.842Z,25.95
2018-05-17T16:43:50.142Z,25.76
2018-05-17T16:48:41.513Z,25.62
2018-05-17T16:53:32.919Z,25.49
2018-05-17T16:58:24.203Z,25.44
2018-05-17T17:03:16.204Z,25.41
2018-05-17T17:08:07.538Z,25.38
2018-05-17T17:12:58.865Z,25.28
2018-05-17T17:17:50.140Z,25.24
2018-05-17T17:22:41.412Z,25.06
2018-05-17T17:27:33.472Z,24.81
2018-05-17T17:32:24.871Z,24.72
2018-05-17T17:37:16.899Z,24.54
2018-05-17T17:42:08.235Z,24.28
2018-05-17T17:46:59.626Z,24.06
2018-05-17T17:51:51.712Z,23.86
2018-05-17T17:56:43.084Z,23.72
2018-05-17T18:01:34.488Z,23.72
2018-05-17T18:06:26.691Z,23.71
2018-05-17T18:11:18.018Z,23.73
2018-05-17T18:16:10.167Z,23.64
2018-05-17T18:21:01.555Z,23.48
2018-05-17T18:25:52.973Z,23.22
2018-05-17T18:30:44.253Z,23.19
2018-05-17T18:35:36.280Z,23.18
2018-05-17T18:40:27.504Z,23.09
2018-05-17T18:45:18.765Z,23.03
2018-05-17T18:50:10.790Z,22.87
2018-05-17T18:55:02.118Z,22.72
2018-05-17T18:59:53.505Z,22.53
2018-05-17T19:04:44.869Z,22.35
2018-05-17T19:09:36.098Z,22.25
2018-05-17T19:14:27.423Z,22.14
2018-05-17T19:19:18.728Z,22.06
2018-05-17T19:24:09.993Z,21.94
2018-05-17T19:29:01.286Z,21.92
2018-05-17T19:33:52.622Z,21.84
2018-05-17T19:38:43.898Z,21.72
2018-05-17T19:43:35.900Z,21.59
2018-05-17T19:48:27.350Z,21.47
2018-05-17T19:53:18.671Z,21.35
2018-05-17T19:58:10.001Z,21.19
2018-05-17T20:03:01.307Z,20.97
2018-05-17T20:07:52.615Z,20.81
2018-05-17T20:12:43.866Z,20.76
2018-05-17T20:17:35.168Z,20.66
2018-05-17T20:22:27.142Z,20.59
2018-05-17T20:27:18.410Z,20.50
2018-05-17T20:32:09.750Z,20.39
2018-05-17T20:37:01.817Z,20.34
2018-05-17T20:41:54.245Z,20.24
2018-05-17T20:46:45.549Z,20.11
2018-05-17T20:51:36.831Z,20.03
2018-05-17T20:56:28.881Z,19.90
2018-05-17T21:01:20.933Z,19.70
2018-05-17T21:06:12.181Z,19.52
2018-05-17T21:11:03.439Z,19.36
2018-05-17T21:15:54.709Z,19.09
2018-05-17T21:20:46.680Z,18.95
2018-05-17T21:25:37.977Z,18.98
2018-05-17T21:30:30.034Z,18.81
2018-05-17T21:35:21.319Z,18.73
2018-05-17T21:40:12.567Z,18.46
2018-05-17T21:45:04.673Z,18.42
2018-05-17T21:49:56.236Z,18.24
2018-05-17T21:54:47.504Z,18.08
2018-05-17T21:59:38.758Z,18.04
2018-05-17T22:04:30.157Z,17.86
2018-05-17T22:09:22.116Z,17.81
2018-05-17T22:14:13.508Z,17.59
2018-05-17T22:19:04.776Z,17.36
2018-05-17T22:23:56.005Z,17.34
2018-05-17T22:28:47.225Z,17.31
2018-05-17T22:33:38.581Z,17.16
2018-05-17T22:38:29.869Z,17.06
2018-05-17T22:43:21.881Z,16.96
2018-05-17T22:48:13.144Z,16.83
2018-05-17T22:53:05.161Z,16.68
2018-05-17T22:58:14.947Z,16.47
2018-05-17T23:03:06.968Z,16.32
2018-05-17T23:07:58.233Z,16.21
2018-05-17T23:12:50.243Z,16.25
2018-05-17T23:17:41.568Z,16.12
2018-05-17T23:22:34.847Z,16.04
2018-05-17T23:27:26.074Z,15.90
2018-05-17T23:32:17.345Z,15.84
2018-05-17T23:37:19.920Z,15.79
2018-05-17T23:42:11.949Z,15.66
2018-05-17T23:47:03.308Z,15.52
2018-05-17T23:51:55.676Z,15.46
2018-05-17T23:56:46.947Z,15.25
